Anchor Point, Alaska
Current Conditions -  °F | °C
As of 9:53 PM on Friday 31 Oct 2014 (Local Time) from PAHO Reporting Station
Overcast Overcast  
Wind Chill: 34°   Ceiling: 8500
Heat Index: 34°   Visibility: 10mi
Dew Point: 27°   Wind: 0mph
Humidity: 75%   Direction: NA
Pressure: 29.13"   Gusts: NA
Location:  59.77°N, 151.82°W
Report Text: PAHO 010553Z AUTO 00000KT 10SM OVC085 01/M03 A2913 RMK AO2 SLP866 T00111028 10039 20011 56002 TSNO
Loading
Personal Weather Stations






























Interactive Weather Map
Tropical Storm Tracking
New forecast layout! Learn more

10-Day Weather Forecast

Advertisements
Track Severe Weather on mobile